createdAt,value
2024-03-22T00:00:56.120Z,0.00
2024-03-22T00:01:56.102Z,0.00
2024-03-22T00:02:56.107Z,0.00
2024-03-22T00:03:56.108Z,0.00
2024-03-22T00:04:56.078Z,0.00
2024-03-22T00:05:56.065Z,0.00
2024-03-22T00:06:56.064Z,0.00
2024-03-22T00:07:56.088Z,0.00
2024-03-22T00:08:56.049Z,0.00
2024-03-22T00:09:56.052Z,0.00
2024-03-22T00:10:56.007Z,0.00
2024-03-22T00:11:55.999Z,0.00
2024-03-22T00:12:56.006Z,0.00
2024-03-22T00:13:55.981Z,0.00
2024-03-22T00:14:55.968Z,0.00
2024-03-22T00:15:55.970Z,0.00
2024-03-22T00:16:55.971Z,0.00
2024-03-22T00:17:55.965Z,0.00
2024-03-22T00:18:55.929Z,0.00
2024-03-22T00:19:55.923Z,0.00
2024-03-22T00:20:55.922Z,0.00
2024-03-22T00:21:55.898Z,0.00
2024-03-22T00:22:55.898Z,0.00
2024-03-22T00:23:55.879Z,0.00
2024-03-22T00:24:55.876Z,0.00
2024-03-22T00:25:55.852Z,0.00
2024-03-22T00:26:55.870Z,0.00
2024-03-22T00:27:55.857Z,0.00
2024-03-22T00:28:55.821Z,0.00
2024-03-22T00:29:55.818Z,0.00
2024-03-22T00:30:55.805Z,0.00
2024-03-22T00:31:56.543Z,0.00
2024-03-22T00:32:55.779Z,0.00
2024-03-22T00:33:55.774Z,0.00
2024-03-22T00:34:55.762Z,0.00
2024-03-22T00:35:55.753Z,0.00
2024-03-22T00:36:55.771Z,0.00
2024-03-22T00:37:55.745Z,0.00
2024-03-22T00:38:55.732Z,0.00
2024-03-22T00:39:55.737Z,0.00
2024-03-22T00:40:55.697Z,0.00
2024-03-22T00:41:55.710Z,0.00
2024-03-22T00:42:55.686Z,0.00
2024-03-22T00:43:55.672Z,0.00
2024-03-22T00:44:55.654Z,0.00
2024-03-22T00:45:55.688Z,0.00
2024-03-22T00:46:55.650Z,0.00
2024-03-22T00:47:55.629Z,0.00
2024-03-22T00:48:55.612Z,0.00
2024-03-22T00:49:55.605Z,0.00
2024-03-22T00:50:55.608Z,0.00
2024-03-22T00:51:55.616Z,0.00
2024-03-22T00:52:55.603Z,0.00
2024-03-22T00:53:55.565Z,0.00
2024-03-22T00:54:55.554Z,0.00
2024-03-22T00:55:55.578Z,0.00
2024-03-22T00:56:55.531Z,0.00
2024-03-22T00:57:55.530Z,0.00
2024-03-22T00:58:55.506Z,0.00
2024-03-22T00:59:55.538Z,0.00
2024-03-22T01:00:55.527Z,0.00
2024-03-22T01:01:55.541Z,0.00
2024-03-22T01:02:55.480Z,0.00
2024-03-22T01:03:55.466Z,0.00
2024-03-22T01:04:55.466Z,0.00
2024-03-22T01:05:55.479Z,0.00
2024-03-22T01:06:55.424Z,0.00
2024-03-22T01:07:55.428Z,0.00
2024-03-22T01:08:55.406Z,0.00
2024-03-22T01:09:55.431Z,0.00
2024-03-22T01:10:55.395Z,0.00
2024-03-22T01:11:55.382Z,0.00
2024-03-22T01:12:55.391Z,0.00
2024-03-22T01:13:55.370Z,0.00
2024-03-22T01:14:55.387Z,0.00
2024-03-22T01:15:55.346Z,0.00
2024-03-22T01:16:55.335Z,0.00
2024-03-22T01:17:55.325Z,0.00
2024-03-22T01:18:55.320Z,0.00
2024-03-22T01:19:55.312Z,0.00
2024-03-22T01:20:55.278Z,0.00
2024-03-22T01:21:55.277Z,0.00
2024-03-22T01:22:55.274Z,0.00
2024-03-22T01:23:55.274Z,0.00
2024-03-22T01:24:55.259Z,0.00
2024-03-22T01:25:55.238Z,0.00
2024-03-22T01:26:55.224Z,0.00
2024-03-22T01:27:55.219Z,0.00
2024-03-22T01:28:57.789Z,0.00
2024-03-22T01:29:55.197Z,0.00
2024-03-22T01:30:55.185Z,0.00
2024-03-22T01:31:55.174Z,0.00
2024-03-22T01:32:55.178Z,0.00
2024-03-22T01:33:55.204Z,0.00
2024-03-22T01:34:55.174Z,0.00
2024-03-22T01:35:55.133Z,0.00
2024-03-22T01:36:55.131Z,0.00
2024-03-22T01:37:55.139Z,0.00
2024-03-22T01:38:55.096Z,0.00
2024-03-22T01:39:55.107Z,0.00
2024-03-22T01:40:55.079Z,0.00
2024-03-22T01:41:55.081Z,0.00
2024-03-22T01:42:55.078Z,0.00
2024-03-22T01:43:55.058Z,0.00
2024-03-22T01:44:55.053Z,0.00
2024-03-22T01:45:55.043Z,0.00
2024-03-22T01:46:55.019Z,0.00
2024-03-22T01:47:55.086Z,0.00
2024-03-22T01:48:55.014Z,0.00
2024-03-22T01:49:55.034Z,0.00
2024-03-22T01:50:54.984Z,0.00
2024-03-22T01:51:54.989Z,0.00
2024-03-22T01:52:54.979Z,0.00
2024-03-22T01:53:54.961Z,0.00
2024-03-22T01:54:54.946Z,0.00
2024-03-22T01:55:54.933Z,0.00
2024-03-22T01:56:54.939Z,0.00
2024-03-22T01:57:54.926Z,0.00
2024-03-22T01:58:54.894Z,0.00
2024-03-22T01:59:54.899Z,0.00
2024-03-22T02:00:54.879Z,0.00
2024-03-22T02:01:54.892Z,0.00
2024-03-22T02:02:54.854Z,0.00
2024-03-22T02:03:54.857Z,0.00
2024-03-22T02:04:54.847Z,0.00
2024-03-22T02:05:54.847Z,0.00
2024-03-22T02:06:54.831Z,0.00
2024-03-22T02:07:54.845Z,0.00
2024-03-22T02:08:54.804Z,0.00
2024-03-22T02:09:54.800Z,0.00
2024-03-22T02:10:54.807Z,0.00
2024-03-22T02:11:54.774Z,0.00
2024-03-22T02:12:54.759Z,0.00
2024-03-22T02:13:54.752Z,0.00
2024-03-22T02:14:54.743Z,0.00
2024-03-22T02:15:54.753Z,0.00
2024-03-22T02:16:54.734Z,0.00
2024-03-22T02:17:54.715Z,0.00
2024-03-22T02:18:54.697Z,0.00
2024-03-22T02:19:54.701Z,0.00
2024-03-22T02:20:54.689Z,0.00
2024-03-22T02:21:54.689Z,0.00
2024-03-22T02:22:54.662Z,0.00
2024-03-22T02:23:54.667Z,0.00
2024-03-22T02:24:54.645Z,0.00
2024-03-22T02:25:54.646Z,0.00
2024-03-22T02:26:54.623Z,0.00
2024-03-22T02:27:54.615Z,0.00
2024-03-22T02:28:54.610Z,0.00
2024-03-22T02:29:54.620Z,0.00
2024-03-22T02:30:54.619Z,0.00
2024-03-22T02:31:54.574Z,0.00
2024-03-22T02:32:54.567Z,0.00
2024-03-22T02:33:54.552Z,0.00
2024-03-22T02:35:00.581Z,0.00
2024-03-22T02:35:54.536Z,0.00
2024-03-22T02:36:54.524Z,0.00
2024-03-22T02:37:54.513Z,0.00
2024-03-22T02:38:54.539Z,0.00
2024-03-22T02:39:54.513Z,0.00
2024-03-22T02:40:54.482Z,0.00
2024-03-22T02:41:54.486Z,0.00
2024-03-22T02:42:54.473Z,0.00
2024-03-22T02:43:54.456Z,0.00
2024-03-22T02:44:54.455Z,0.00
2024-03-22T02:45:54.445Z,0.00
2024-03-22T02:46:54.419Z,0.00
2024-03-22T02:47:54.434Z,0.00
2024-03-22T02:48:54.426Z,0.00
2024-03-22T02:49:54.458Z,0.00
2024-03-22T02:50:54.376Z,0.00
2024-03-22T02:51:54.370Z,0.00
2024-03-22T02:52:54.356Z,0.00
2024-03-22T02:53:54.370Z,0.00
2024-03-22T02:54:54.362Z,0.00
2024-03-22T02:55:54.342Z,0.00
2024-03-22T02:56:54.311Z,0.00
2024-03-22T02:57:54.311Z,0.00
2024-03-22T02:58:55.098Z,0.00
2024-03-22T02:59:54.297Z,0.00
2024-03-22T03:00:54.273Z,0.00
2024-03-22T03:01:54.269Z,0.00
2024-03-22T03:02:54.276Z,0.00
2024-03-22T03:03:54.272Z,0.00
2024-03-22T03:04:54.236Z,0.00
2024-03-22T03:05:54.246Z,0.00
2024-03-22T03:06:54.216Z,0.00
2024-03-22T03:07:54.248Z,0.00
2024-03-22T03:08:54.210Z,0.00
2024-03-22T03:09:54.193Z,0.00
2024-03-22T03:10:54.177Z,0.00
2024-03-22T03:11:54.166Z,0.00
2024-03-22T03:12:54.250Z,0.00
2024-03-22T03:13:54.148Z,0.00
2024-03-22T03:14:54.137Z,0.00
2024-03-22T03:15:54.124Z,0.00
2024-03-22T03:16:54.128Z,0.00
2024-03-22T03:17:54.121Z,0.00
2024-03-22T03:18:54.093Z,0.00
2024-03-22T03:19:54.083Z,0.00
2024-03-22T03:20:54.066Z,0.00
2024-03-22T03:21:54.182Z,0.00
2024-03-22T03:22:54.080Z,0.00
2024-03-22T03:23:54.094Z,0.00
2024-03-22T03:24:54.027Z,0.00
2024-03-22T03:25:54.025Z,0.00
2024-03-22T03:26:54.142Z,0.00
2024-03-22T03:27:54.008Z,0.00
2024-03-22T03:28:53.998Z,0.00
2024-03-22T03:29:53.975Z,0.00
2024-03-22T03:30:53.980Z,0.00
2024-03-22T03:31:54.314Z,0.00
2024-03-22T03:32:54.027Z,0.00
2024-03-22T03:33:53.941Z,0.00
2024-03-22T03:34:53.925Z,0.00
2024-03-22T03:35:53.936Z,0.00
2024-03-22T03:36:54.305Z,0.00
2024-03-22T03:37:53.902Z,0.00
2024-03-22T03:38:53.887Z,0.00
2024-03-22T03:39:53.875Z,0.00
2024-03-22T03:40:53.890Z,0.00
2024-03-22T03:41:53.849Z,0.00
2024-03-22T03:42:53.879Z,0.00
2024-03-22T03:43:53.840Z,0.00
2024-03-22T03:44:53.827Z,0.00
2024-03-22T03:45:53.844Z,0.00
2024-03-22T03:46:53.803Z,0.00
2024-03-22T03:47:53.794Z,0.00
2024-03-22T03:48:53.778Z,0.00
2024-03-22T03:49:53.791Z,0.00
2024-03-22T03:50:53.775Z,0.00
2024-03-22T03:51:53.764Z,0.00
2024-03-22T03:52:53.736Z,0.00
2024-03-22T03:53:53.733Z,0.00
2024-03-22T03:54:53.733Z,0.00
2024-03-22T03:55:53.718Z,0.00
2024-03-22T03:56:53.695Z,0.00
2024-03-22T03:57:53.694Z,0.00
2024-03-22T03:58:53.682Z,0.00
2024-03-22T03:59:53.685Z,0.00
2024-03-22T04:00:53.708Z,0.00
2024-03-22T04:01:53.651Z,0.00
2024-03-22T04:02:53.655Z,0.00
2024-03-22T04:03:53.633Z,0.00
2024-03-22T04:04:56.170Z,0.00
2024-03-22T04:05:53.618Z,0.00
2024-03-22T04:06:53.589Z,0.00
2024-03-22T04:07:53.619Z,0.00
2024-03-22T04:08:53.590Z,0.00
2024-03-22T04:09:53.611Z,0.00
2024-03-22T04:10:53.560Z,0.00
2024-03-22T04:11:53.552Z,0.00
2024-03-22T04:12:53.542Z,0.00
2024-03-22T04:13:53.571Z,0.00
2024-03-22T04:14:53.517Z,0.00
2024-03-22T04:15:53.506Z,0.00
2024-03-22T04:16:53.490Z,0.00
2024-03-22T04:17:53.485Z,0.00
2024-03-22T04:18:53.497Z,0.00
2024-03-22T04:19:53.469Z,0.00
2024-03-22T04:20:53.450Z,0.00
2024-03-22T04:21:53.448Z,0.00
2024-03-22T04:22:53.460Z,0.00
2024-03-22T04:23:53.460Z,0.00
2024-03-22T04:24:53.415Z,0.00
2024-03-22T04:25:53.407Z,0.00
2024-03-22T04:26:53.394Z,0.00
2024-03-22T04:27:53.405Z,0.00
2024-03-22T04:28:53.381Z,0.00
2024-03-22T04:29:53.369Z,0.00
2024-03-22T04:30:53.360Z,0.00
2024-03-22T04:31:53.342Z,0.00
2024-03-22T04:32:53.360Z,0.00
2024-03-22T04:33:53.330Z,0.00
2024-03-22T04:34:53.331Z,0.00
2024-03-22T04:35:53.299Z,0.00
2024-03-22T04:36:53.335Z,0.00
2024-03-22T04:37:53.306Z,0.00
2024-03-22T04:38:53.279Z,0.00
2024-03-22T04:39:53.274Z,0.00
2024-03-22T04:40:53.275Z,0.00
2024-03-22T04:41:53.251Z,0.00
2024-03-22T04:42:53.232Z,0.00
2024-03-22T04:43:53.232Z,0.00
2024-03-22T04:44:53.223Z,0.00
2024-03-22T04:45:53.199Z,0.00
2024-03-22T04:46:53.205Z,0.00
2024-03-22T04:47:53.193Z,1.00
2024-03-22T04:48:53.176Z,0.00
2024-03-22T04:49:53.170Z,0.00
2024-03-22T04:50:53.154Z,0.00
2024-03-22T04:51:53.111Z,1.00
2024-03-22T04:52:53.078Z,1.00
2024-03-22T04:53:53.059Z,1.00
2024-03-22T04:54:53.056Z,1.00
2024-03-22T04:55:53.068Z,2.00
2024-03-22T04:56:53.111Z,0.00
2024-03-22T04:57:53.035Z,2.00
2024-03-22T04:58:53.024Z,2.00
2024-03-22T04:59:53.000Z,1.00
2024-03-22T05:00:53.079Z,0.00
2024-03-22T05:01:53.005Z,2.00
2024-03-22T05:02:52.987Z,1.00
2024-03-22T05:03:52.959Z,3.00
2024-03-22T05:04:52.955Z,6.00
2024-03-22T05:05:52.980Z,7.00
2024-03-22T05:06:52.940Z,5.00
2024-03-22T05:07:52.933Z,5.00
2024-03-22T05:08:52.917Z,7.00
2024-03-22T05:09:52.897Z,12.00
2024-03-22T05:10:52.942Z,14.00
2024-03-22T05:11:52.877Z,16.00
2024-03-22T05:12:52.871Z,18.00
2024-03-22T05:13:52.884Z,25.00
2024-03-22T05:14:52.892Z,26.00
2024-03-22T05:15:52.857Z,31.00
2024-03-22T05:16:52.842Z,37.00
2024-03-22T05:17:52.818Z,41.00
2024-03-22T05:18:52.816Z,39.00
2024-03-22T05:19:52.821Z,42.00
2024-03-22T05:20:52.790Z,41.00
2024-03-22T05:21:52.781Z,44.00
2024-03-22T05:22:52.773Z,54.00
2024-03-22T05:23:52.762Z,61.00
2024-03-22T05:24:52.770Z,68.00
2024-03-22T05:25:52.736Z,83.00
2024-03-22T05:26:52.738Z,90.00
2024-03-22T05:27:52.725Z,101.00
2024-03-22T05:28:52.714Z,105.00
2024-03-22T05:29:52.715Z,105.00
2024-03-22T05:30:52.701Z,103.00
2024-03-22T05:31:52.690Z,102.00
2024-03-22T05:32:52.691Z,102.00
2024-03-22T05:33:52.676Z,107.00
2024-03-22T05:34:52.681Z,111.00
2024-03-22T05:35:52.641Z,130.00
2024-03-22T05:36:52.635Z,139.00
2024-03-22T05:37:52.617Z,150.00
2024-03-22T05:38:52.631Z,167.00
2024-03-22T05:39:52.615Z,181.00
2024-03-22T05:40:52.593Z,191.00
2024-03-22T05:41:52.583Z,193.00
2024-03-22T05:42:52.596Z,198.00
2024-03-22T05:43:52.654Z,198.00
2024-03-22T05:44:52.574Z,215.00
2024-03-22T05:45:52.552Z,215.00
2024-03-22T05:46:52.536Z,219.00
2024-03-22T05:47:52.546Z,222.00
2024-03-22T05:48:52.538Z,229.00
2024-03-22T05:49:52.503Z,234.00
2024-03-22T05:50:52.511Z,239.00
2024-03-22T05:51:52.480Z,248.00
2024-03-22T05:52:52.495Z,253.00
2024-03-22T05:53:52.472Z,260.00
2024-03-22T05:54:52.471Z,278.00
2024-03-22T05:55:52.441Z,297.00
2024-03-22T05:56:52.480Z,321.00
2024-03-22T05:57:52.437Z,332.00
2024-03-22T05:58:52.490Z,345.00
2024-03-22T05:59:52.524Z,351.00
2024-03-22T06:00:52.394Z,353.00
2024-03-22T06:01:52.400Z,362.00
2024-03-22T06:02:52.472Z,364.00
2024-03-22T06:03:52.367Z,371.00
2024-03-22T06:04:52.374Z,378.00
2024-03-22T06:05:52.337Z,380.00
2024-03-22T06:06:52.361Z,380.00
2024-03-22T06:07:52.325Z,386.00
2024-03-22T06:08:52.316Z,393.00
2024-03-22T06:09:52.309Z,384.00
2024-03-22T06:10:52.293Z,381.00
2024-03-22T06:11:52.824Z,380.00
2024-03-22T06:12:52.274Z,374.00
2024-03-22T06:13:52.268Z,374.00
2024-03-22T06:14:52.277Z,362.00
2024-03-22T06:15:52.246Z,349.00
2024-03-22T06:16:52.247Z,342.00
2024-03-22T06:17:52.208Z,357.00
2024-03-22T06:18:52.215Z,359.00
2024-03-22T06:19:52.192Z,366.00
2024-03-22T06:20:52.212Z,365.00
2024-03-22T06:21:52.192Z,374.00
2024-03-22T06:22:52.184Z,378.00
2024-03-22T06:23:52.162Z,386.00
2024-03-22T06:24:52.150Z,395.00
2024-03-22T06:25:52.158Z,382.00
2024-03-22T06:26:58.146Z,378.00
2024-03-22T06:27:53.679Z,391.00
2024-03-22T06:28:52.157Z,419.00
2024-03-22T06:29:52.708Z,450.00
2024-03-22T06:30:52.111Z,502.00
2024-03-22T06:31:52.217Z,569.00
2024-03-22T06:32:52.070Z,574.00
2024-03-22T06:33:52.054Z,581.00
2024-03-22T06:34:52.066Z,612.00
2024-03-22T06:35:52.030Z,633.00
2024-03-22T06:36:52.033Z,614.00
2024-03-22T06:37:52.026Z,598.00
2024-03-22T06:38:52.006Z,594.00
2024-03-22T06:39:52.024Z,585.00
2024-03-22T06:40:51.981Z,591.00
2024-03-22T06:41:51.967Z,593.00
2024-03-22T06:42:51.956Z,595.00
2024-03-22T06:43:51.941Z,598.00
2024-03-22T06:44:51.976Z,644.00
2024-03-22T06:45:51.931Z,701.00
2024-03-22T06:46:51.930Z,714.00
2024-03-22T06:47:51.939Z,732.00
2024-03-22T06:48:51.911Z,801.00
2024-03-22T06:49:51.906Z,757.00
2024-03-22T06:50:51.873Z,929.00
2024-03-22T06:51:51.863Z,1141.00
2024-03-22T06:52:51.866Z,1222.00
2024-03-22T06:53:53.398Z,1267.00
2024-03-22T06:54:51.834Z,1372.00
2024-03-22T06:55:51.820Z,1420.00
2024-03-22T06:56:51.815Z,1423.00
2024-03-22T06:57:51.805Z,1440.00
2024-03-22T06:58:51.817Z,1475.00
2024-03-22T06:59:51.791Z,1482.00
2024-03-22T07:00:51.768Z,1523.00
2024-03-22T07:01:51.772Z,1593.00
2024-03-22T07:02:51.778Z,1637.00
2024-03-22T07:03:51.832Z,1762.00
2024-03-22T07:04:51.766Z,1864.00
2024-03-22T07:05:51.821Z,1953.00
2024-03-22T07:06:51.754Z,2000.00
2024-03-22T07:07:51.718Z,2005.00
2024-03-22T07:08:51.712Z,2077.00
2024-03-22T07:09:51.709Z,2312.00
2024-03-22T07:10:51.682Z,2400.00
2024-03-22T07:11:51.689Z,2492.00
2024-03-22T07:12:51.658Z,2617.00
2024-03-22T07:13:51.651Z,2661.00
2024-03-22T07:14:51.632Z,2775.00
2024-03-22T07:15:51.615Z,2934.00
2024-03-22T07:16:51.662Z,3082.00
2024-03-22T07:17:51.686Z,3114.00
2024-03-22T07:18:51.590Z,2890.00
2024-03-22T07:19:51.565Z,3845.00
2024-03-22T07:20:51.581Z,3493.00
2024-03-22T07:21:51.573Z,4650.00
2024-03-22T07:22:51.558Z,4444.00
2024-03-22T07:23:51.535Z,4290.00
2024-03-22T07:24:51.529Z,4348.00
2024-03-22T07:25:51.530Z,3969.00
2024-03-22T07:26:51.544Z,3352.00
2024-03-22T07:27:51.495Z,2080.00
2024-03-22T07:28:51.490Z,2953.00
2024-03-22T07:29:51.471Z,6789.00
2024-03-22T07:30:51.465Z,9015.00
2024-03-22T07:31:51.460Z,13725.00
2024-03-22T07:32:51.746Z,16054.00
2024-03-22T07:33:51.537Z,8054.00
2024-03-22T07:34:51.416Z,13784.00
2024-03-22T07:35:51.425Z,4357.00
2024-03-22T07:36:51.423Z,17089.00
2024-03-22T07:37:51.515Z,11489.00
2024-03-22T07:38:51.452Z,8941.00
2024-03-22T07:39:51.372Z,7448.00
2024-03-22T07:40:51.391Z,5938.00
2024-03-22T07:41:51.357Z,20958.00
2024-03-22T07:42:51.396Z,16234.00
2024-03-22T07:43:51.312Z,8759.00
2024-03-22T07:44:51.368Z,6880.00
2024-03-22T07:45:51.372Z,7547.00
2024-03-22T07:46:51.313Z,6926.00
2024-03-22T07:47:51.302Z,6766.00
2024-03-22T07:48:51.264Z,6880.00
2024-03-22T07:49:51.739Z,5887.00
2024-03-22T07:50:51.264Z,5509.00
2024-03-22T07:51:51.276Z,4798.00
2024-03-22T07:52:51.225Z,4970.00
2024-03-22T07:53:51.231Z,3320.00
2024-03-22T07:54:51.222Z,8659.00
2024-03-22T07:55:51.262Z,9176.00
2024-03-22T07:56:51.212Z,4954.00
2024-03-22T07:57:51.213Z,4464.00
2024-03-22T07:58:51.240Z,4695.00
2024-03-22T07:59:51.989Z,4474.00
2024-03-22T08:00:51.155Z,4373.00
2024-03-22T08:01:51.167Z,4017.00
2024-03-22T08:02:51.184Z,5172.00
2024-03-22T08:03:51.173Z,5260.00
2024-03-22T08:04:51.362Z,4348.00
2024-03-22T08:05:51.102Z,4440.00
2024-03-22T08:06:51.083Z,5641.00
2024-03-22T08:07:51.076Z,5946.00
2024-03-22T08:08:51.102Z,3985.00
2024-03-22T08:09:51.036Z,3574.00
2024-03-22T08:10:51.043Z,11690.00
2024-03-22T08:11:51.085Z,16403.00
2024-03-22T08:12:51.012Z,5855.00
2024-03-22T08:13:51.046Z,5216.00
2024-03-22T08:14:51.010Z,4694.00
2024-03-22T08:15:50.985Z,4408.00
2024-03-22T08:16:51.046Z,4458.00
2024-03-22T08:17:51.053Z,4715.00
2024-03-22T08:18:50.987Z,4776.00
2024-03-22T08:19:50.938Z,5479.00
2024-03-22T08:20:50.986Z,5862.00
2024-03-22T08:21:50.908Z,5857.00
2024-03-22T08:22:51.029Z,5471.00
2024-03-22T08:23:51.029Z,5235.00
2024-03-22T08:24:51.000Z,5088.00
2024-03-22T08:25:50.892Z,2683.00
2024-03-22T08:26:50.959Z,9474.00
2024-03-22T08:28:00.729Z,8950.00
2024-03-22T08:28:51.197Z,13202.00
2024-03-22T08:29:50.855Z,6880.00
2024-03-22T08:30:52.061Z,10050.00
2024-03-22T08:31:50.922Z,9676.00
2024-03-22T08:32:50.887Z,6668.00
2024-03-22T08:33:50.797Z,6494.00
2024-03-22T08:34:50.798Z,7675.00
2024-03-22T08:35:50.875Z,6775.00
2024-03-22T08:36:50.828Z,5354.00
2024-03-22T08:37:50.818Z,4577.00
2024-03-22T08:38:50.859Z,4230.00
2024-03-22T08:39:50.728Z,3903.00
2024-03-22T08:40:50.742Z,3828.00
2024-03-22T08:41:50.968Z,3740.00
2024-03-22T08:42:50.725Z,3645.00
2024-03-22T08:43:50.741Z,3511.00
2024-03-22T08:44:50.668Z,3176.00
2024-03-22T08:45:50.695Z,2905.00
2024-03-22T08:46:50.670Z,2806.00
2024-03-22T08:47:50.671Z,2824.00
2024-03-22T08:48:50.655Z,3019.00
2024-03-22T08:49:50.690Z,3031.00
2024-03-22T08:50:50.743Z,2859.00
2024-03-22T08:51:50.783Z,2959.00
2024-03-22T08:52:50.602Z,3036.00
2024-03-22T08:53:50.667Z,3060.00
2024-03-22T08:54:50.573Z,3088.00
2024-03-22T08:55:50.605Z,3081.00
2024-03-22T08:56:50.664Z,2914.00
2024-03-22T08:57:58.002Z,2981.00
2024-03-22T08:58:50.536Z,3034.00
2024-03-22T08:59:50.574Z,2856.00
2024-03-22T09:00:50.538Z,2684.00
2024-03-22T09:01:50.503Z,2529.00
2024-03-22T09:02:50.508Z,2690.00
2024-03-22T09:03:50.496Z,2611.00
2024-03-22T09:04:50.502Z,2421.00
2024-03-22T09:05:56.664Z,2402.00
2024-03-22T09:06:50.446Z,2459.00
2024-03-22T09:07:50.871Z,2270.00
2024-03-22T09:08:50.434Z,2286.00
2024-03-22T09:09:50.948Z,2286.00
2024-03-22T09:10:50.492Z,2271.00
2024-03-22T09:11:50.427Z,2098.00
2024-03-22T09:12:50.400Z,1989.00
2024-03-22T09:13:50.407Z,1969.00
2024-03-22T09:14:50.496Z,2201.00
2024-03-22T09:15:50.411Z,2225.00
2024-03-22T09:16:50.335Z,1952.00
2024-03-22T09:17:50.497Z,1863.00
2024-03-22T09:18:50.367Z,1813.00
2024-03-22T09:19:50.356Z,2075.00
2024-03-22T09:20:50.486Z,2060.00
2024-03-22T09:21:50.286Z,1883.00
2024-03-22T09:22:50.374Z,1700.00
2024-03-22T09:23:50.299Z,1546.00
2024-03-22T09:24:50.250Z,1452.00
2024-03-22T09:25:50.249Z,1484.00
2024-03-22T09:26:50.233Z,1547.00
2024-03-22T09:27:50.270Z,1632.00
2024-03-22T09:28:50.211Z,1715.00
2024-03-22T09:29:50.215Z,1723.00
2024-03-22T09:30:57.608Z,1732.00
2024-03-22T09:31:50.355Z,1991.00
2024-03-22T09:32:50.283Z,2249.00
2024-03-22T09:33:50.260Z,2586.00
2024-03-22T09:34:50.156Z,2540.00
2024-03-22T09:35:50.200Z,2281.00
2024-03-22T09:36:50.147Z,1969.00
2024-03-22T09:37:50.293Z,1724.00
2024-03-22T09:38:50.201Z,1523.00
2024-03-22T09:39:50.194Z,1376.00
2024-03-22T09:40:50.087Z,1241.00
2024-03-22T09:41:50.877Z,1174.00
2024-03-22T09:42:50.099Z,1142.00
2024-03-22T09:43:50.074Z,1104.00
2024-03-22T09:44:50.098Z,1096.00
2024-03-22T09:45:50.029Z,1085.00
2024-03-22T09:46:51.039Z,1098.00
2024-03-22T09:47:50.055Z,1232.00
2024-03-22T09:48:50.098Z,1446.00
2024-03-22T09:49:50.000Z,1825.00
2024-03-22T09:50:50.076Z,2074.00
2024-03-22T09:51:50.077Z,2208.00
2024-03-22T09:52:49.947Z,2146.00
2024-03-22T09:53:50.336Z,2121.00
2024-03-22T09:54:50.001Z,2701.00
2024-03-22T09:55:50.040Z,3015.00
2024-03-22T09:56:49.943Z,2821.00
2024-03-22T09:57:49.928Z,2909.00
2024-03-22T09:58:50.099Z,2983.00
2024-03-22T09:59:50.010Z,2987.00
2024-03-22T10:00:49.962Z,2990.00
2024-03-22T10:01:49.896Z,3120.00
2024-03-22T10:02:49.863Z,3203.00
2024-03-22T10:03:49.892Z,2898.00
2024-03-22T10:04:49.837Z,2567.00
2024-03-22T10:05:50.322Z,2502.00
2024-03-22T10:06:49.859Z,2561.00
2024-03-22T10:07:49.851Z,3079.00
2024-03-22T10:08:49.824Z,3905.00
2024-03-22T10:09:49.896Z,3303.00
2024-03-22T10:10:49.790Z,3699.00
2024-03-22T10:11:49.786Z,2782.00
2024-03-22T10:12:49.865Z,4765.00
2024-03-22T10:13:49.752Z,5459.00
2024-03-22T10:14:49.783Z,3987.00
2024-03-22T10:15:49.729Z,3999.00
2024-03-22T10:16:49.783Z,3715.00
2024-03-22T10:17:49.734Z,4118.00
2024-03-22T10:18:49.737Z,4514.00
2024-03-22T10:19:49.749Z,4193.00
2024-03-22T10:20:49.670Z,3373.00
2024-03-22T10:21:49.740Z,2907.00
2024-03-22T10:22:49.662Z,2852.00
2024-03-22T10:23:49.651Z,2920.00
2024-03-22T10:24:49.655Z,3210.00
2024-03-22T10:25:49.621Z,3176.00
2024-03-22T10:26:49.597Z,3126.00
2024-03-22T10:27:49.686Z,3123.00
2024-03-22T10:28:49.678Z,3085.00
2024-03-22T10:29:49.613Z,3172.00
2024-03-22T10:30:49.564Z,3609.00
2024-03-22T10:31:49.595Z,3803.00
2024-03-22T10:32:49.529Z,3593.00
2024-03-22T10:33:49.653Z,3377.00
2024-03-22T10:34:49.535Z,3356.00
2024-03-22T10:35:49.558Z,3396.00
2024-03-22T10:36:49.540Z,3180.00
2024-03-22T10:37:52.614Z,3101.00
2024-03-22T10:38:49.560Z,3145.00
2024-03-22T10:39:49.474Z,3128.00
2024-03-22T10:40:49.524Z,3432.00
2024-03-22T10:41:49.549Z,3698.00
2024-03-22T10:42:49.558Z,3875.00
2024-03-22T10:43:49.425Z,4026.00
2024-03-22T10:44:49.439Z,4250.00
2024-03-22T10:45:49.563Z,4156.00
2024-03-22T10:46:49.441Z,3821.00
2024-03-22T10:47:49.446Z,3539.00
2024-03-22T10:48:49.393Z,3309.00
2024-03-22T10:49:51.121Z,3237.00
2024-03-22T10:50:49.456Z,3219.00
2024-03-22T10:51:49.357Z,3381.00
2024-03-22T10:52:49.482Z,3445.00
2024-03-22T10:53:49.352Z,3369.00
2024-03-22T10:54:49.324Z,3501.00
2024-03-22T10:55:49.323Z,3552.00
2024-03-22T10:56:49.424Z,3525.00
2024-03-22T10:57:49.381Z,3403.00
2024-03-22T10:58:49.458Z,3866.00
2024-03-22T10:59:49.568Z,3793.00
2024-03-22T11:00:49.243Z,3993.00
2024-03-22T11:01:49.756Z,3852.00
2024-03-22T11:02:49.236Z,4833.00
2024-03-22T11:03:49.221Z,5016.00
2024-03-22T11:04:49.218Z,4667.00
2024-03-22T11:05:49.232Z,4803.00
2024-03-22T11:06:49.192Z,4784.00
2024-03-22T11:07:49.189Z,5007.00
2024-03-22T11:08:49.223Z,5233.00
2024-03-22T11:09:49.168Z,5314.00
2024-03-22T11:10:49.193Z,5027.00
2024-03-22T11:11:49.149Z,5331.00
2024-03-22T11:12:49.177Z,4566.00
2024-03-22T11:13:49.099Z,4957.00
2024-03-22T11:14:50.603Z,4557.00
2024-03-22T11:15:49.102Z,4671.00
2024-03-22T11:16:49.075Z,4810.00
2024-03-22T11:17:49.207Z,4850.00
2024-03-22T11:18:49.047Z,5234.00
2024-03-22T11:19:49.045Z,5009.00
2024-03-22T11:20:49.039Z,5671.00
2024-03-22T11:21:49.036Z,4824.00
2024-03-22T11:22:49.011Z,5412.00
2024-03-22T11:23:49.623Z,5389.00
2024-03-22T11:24:49.875Z,5272.00
2024-03-22T11:25:48.994Z,5370.00
2024-03-22T11:26:48.963Z,5299.00
2024-03-22T11:27:48.956Z,4987.00
2024-03-22T11:28:48.936Z,4890.00
2024-03-22T11:29:48.963Z,4740.00
2024-03-22T11:30:48.936Z,4941.00
2024-03-22T11:31:48.912Z,5124.00
2024-03-22T11:32:48.922Z,5176.00
2024-03-22T11:33:48.916Z,4944.00
2024-03-22T11:34:48.913Z,4707.00
2024-03-22T11:35:48.906Z,4534.00
2024-03-22T11:36:48.849Z,5033.00
2024-03-22T11:37:48.865Z,4293.00
2024-03-22T11:38:48.911Z,3957.00
2024-03-22T11:39:48.862Z,4570.00
2024-03-22T11:40:48.817Z,3962.00
2024-03-22T11:41:48.839Z,4074.00
2024-03-22T11:42:48.794Z,4175.00
2024-03-22T11:43:48.834Z,4146.00
2024-03-22T11:44:48.773Z,3625.00
2024-03-22T11:45:48.781Z,3765.00
2024-03-22T11:46:48.757Z,3770.00
2024-03-22T11:47:48.748Z,4015.00
2024-03-22T11:48:49.005Z,3914.00
2024-03-22T11:49:48.779Z,4327.00
2024-03-22T11:50:48.791Z,3859.00
2024-03-22T11:51:48.705Z,3341.00
2024-03-22T11:52:48.834Z,3844.00
2024-03-22T11:53:48.708Z,3546.00
2024-03-22T11:54:48.665Z,3715.00
2024-03-22T11:55:48.662Z,3663.00
2024-03-22T11:56:48.694Z,3541.00
2024-03-22T11:57:48.660Z,3565.00
2024-03-22T11:58:48.705Z,3457.00
2024-03-22T12:00:02.608Z,3151.00
2024-03-22T12:01:12.031Z,2927.00
2024-03-22T12:01:48.683Z,2925.00
2024-03-22T12:02:48.605Z,3083.00
2024-03-22T12:03:48.582Z,3092.00
2024-03-22T12:04:48.579Z,3024.00
2024-03-22T12:05:48.722Z,3021.00
2024-03-22T12:06:48.573Z,3008.00
2024-03-22T12:07:48.653Z,3264.00
2024-03-22T12:08:48.554Z,3143.00
2024-03-22T12:09:48.516Z,2949.00
2024-03-22T12:10:48.563Z,2735.00
2024-03-22T12:11:48.549Z,2631.00
2024-03-22T12:12:48.492Z,2663.00
2024-03-22T12:13:48.492Z,2590.00
2024-03-22T12:14:48.456Z,3034.00
2024-03-22T12:15:48.464Z,2884.00
2024-03-22T12:16:48.459Z,2690.00
2024-03-22T12:17:48.489Z,3660.00
2024-03-22T12:18:48.414Z,3475.00
2024-03-22T12:19:48.415Z,3339.00
2024-03-22T12:20:48.415Z,3883.00
2024-03-22T12:21:48.428Z,4074.00
2024-03-22T12:22:48.388Z,3662.00
2024-03-22T12:23:48.371Z,3680.00
2024-03-22T12:24:48.439Z,3588.00
2024-03-22T12:25:48.376Z,3508.00
2024-03-22T12:26:48.381Z,3453.00
2024-03-22T12:27:48.328Z,3423.00
2024-03-22T12:28:48.312Z,3465.00
2024-03-22T12:29:48.302Z,3433.00
2024-03-22T12:30:48.308Z,3238.00
2024-03-22T12:31:48.282Z,2962.00
2024-03-22T12:32:48.271Z,3079.00
2024-03-22T12:33:48.291Z,3493.00
2024-03-22T12:34:48.242Z,3305.00
2024-03-22T12:35:48.271Z,3091.00
2024-03-22T12:36:48.231Z,3088.00
2024-03-22T12:37:48.212Z,3537.00